sensor_id;sensor_type;location;lat;lon;timestamp;P1;durP1;ratioP1;P2;durP2;ratioP2
43676;SDS011;29275;48.800;18.102;2023-11-21T00:02:22;3.33;;;1.20;;
43676;SDS011;29275;48.800;18.102;2023-11-21T00:05:25;4.25;;;0.88;;
43676;SDS011;29275;48.800;18.102;2023-11-21T00:08:28;3.42;;;1.10;;
43676;SDS011;29275;48.800;18.102;2023-11-21T00:11:32;3.95;;;1.40;;
43676;SDS011;29275;48.800;18.102;2023-11-21T00:14:36;5.15;;;0.90;;
43676;SDS011;29275;48.800;18.102;2023-11-21T00:17:42;2.83;;;0.80;;
43676;SDS011;29275;48.800;18.102;2023-11-21T00:20:45;3.22;;;0.90;;
43676;SDS011;29275;48.800;18.102;2023-11-21T00:23:48;5.80;;;1.45;;
43676;SDS011;29275;48.800;18.102;2023-11-21T00:26:51;3.08;;;1.73;;
43676;SDS011;29275;48.800;18.102;2023-11-21T00:29:55;3.28;;;1.17;;
43676;SDS011;29275;48.800;18.102;2023-11-21T00:32:58;3.50;;;0.90;;
43676;SDS011;29275;48.800;18.102;2023-11-21T00:36:01;4.65;;;1.30;;
43676;SDS011;29275;48.800;18.102;2023-11-21T00:39:04;4.57;;;1.15;;
43676;SDS011;29275;48.800;18.102;2023-11-21T00:42:09;4.07;;;0.95;;
43676;SDS011;29275;48.800;18.102;2023-11-21T00:45:13;2.50;;;0.80;;
43676;SDS011;29275;48.800;18.102;2023-11-21T00:48:16;4.40;;;1.10;;
43676;SDS011;29275;48.800;18.102;2023-11-21T00:51:19;2.03;;;0.80;;
43676;SDS011;29275;48.800;18.102;2023-11-21T00:54:23;2.10;;;0.55;;
43676;SDS011;29275;48.800;18.102;2023-11-21T00:57:26;2.80;;;0.98;;
43676;SDS011;29275;48.800;18.102;2023-11-21T01:00:29;4.72;;;1.00;;
43676;SDS011;29275;48.800;18.102;2023-11-21T01:03:33;4.35;;;1.55;;
43676;SDS011;29275;48.800;18.102;2023-11-21T01:06:36;3.03;;;1.10;;
43676;SDS011;29275;48.800;18.102;2023-11-21T01:09:39;3.80;;;1.05;;
43676;SDS011;29275;48.800;18.102;2023-11-21T01:12:42;9.32;;;4.85;;
43676;SDS011;29275;48.800;18.102;2023-11-21T01:15:46;5.30;;;2.00;;
43676;SDS011;29275;48.800;18.102;2023-11-21T01:18:49;10.60;;;6.60;;
43676;SDS011;29275;48.800;18.102;2023-11-21T01:21:55;5.55;;;3.60;;
43676;SDS011;29275;48.800;18.102;2023-11-21T01:24:59;3.75;;;1.35;;
43676;SDS011;29275;48.800;18.102;2023-11-21T01:28:02;4.28;;;1.17;;
43676;SDS011;29275;48.800;18.102;2023-11-21T01:31:05;3.53;;;1.17;;
43676;SDS011;29275;48.800;18.102;2023-11-21T01:34:10;2.97;;;1.00;;
43676;SDS011;29275;48.800;18.102;2023-11-21T01:37:13;4.53;;;1.17;;
43676;SDS011;29275;48.800;18.102;2023-11-21T01:40:16;3.47;;;1.08;;
43676;SDS011;29275;48.800;18.102;2023-11-21T01:43:19;4.32;;;1.00;;
43676;SDS011;29275;48.800;18.102;2023-11-21T01:46:22;3.33;;;0.85;;
43676;SDS011;29275;48.800;18.102;2023-11-21T01:49:27;2.95;;;0.70;;
43676;SDS011;29275;48.800;18.102;2023-11-21T01:52:31;3.22;;;0.80;;
43676;SDS011;29275;48.800;18.102;2023-11-21T01:55:34;4.57;;;0.80;;
43676;SDS011;29275;48.800;18.102;2023-11-21T01:58:38;1.90;;;0.80;;
43676;SDS011;29275;48.800;18.102;2023-11-21T02:01:42;2.17;;;0.82;;
43676;SDS011;29275;48.800;18.102;2023-11-21T02:04:45;5.03;;;0.90;;
43676;SDS011;29275;48.800;18.102;2023-11-21T02:07:48;1.95;;;0.50;;
43676;SDS011;29275;48.800;18.102;2023-11-21T02:10:51;2.08;;;0.68;;
43676;SDS011;29275;48.800;18.102;2023-11-21T02:13:55;9.52;;;8.10;;
43676;SDS011;29275;48.800;18.102;2023-11-21T02:16:58;12.07;;;10.90;;
43676;SDS011;29275;48.800;18.102;2023-11-21T02:20:01;14.20;;;12.43;;
43676;SDS011;29275;48.800;18.102;2023-11-21T02:23:05;7.82;;;6.70;;
43676;SDS011;29275;48.800;18.102;2023-11-21T02:26:07;8.25;;;5.68;;
43676;SDS011;29275;48.800;18.102;2023-11-21T02:29:12;8.70;;;7.80;;
43676;SDS011;29275;48.800;18.102;2023-11-21T02:32:16;7.75;;;6.40;;
43676;SDS011;29275;48.800;18.102;2023-11-21T02:35:21;9.77;;;6.13;;
43676;SDS011;29275;48.800;18.102;2023-11-21T02:38:27;5.97;;;4.68;;
43676;SDS011;29275;48.800;18.102;2023-11-21T02:41:30;14.70;;;9.02;;
43676;SDS011;29275;48.800;18.102;2023-11-21T02:44:33;37.20;;;25.60;;
43676;SDS011;29275;48.800;18.102;2023-11-21T02:47:37;5.28;;;3.28;;
43676;SDS011;29275;48.800;18.102;2023-11-21T02:50:40;10.35;;;7.82;;
43676;SDS011;29275;48.800;18.102;2023-11-21T02:53:45;4.10;;;2.00;;
43676;SDS011;29275;48.800;18.102;2023-11-21T02:56:54;3.63;;;1.40;;
43676;SDS011;29275;48.800;18.102;2023-11-21T02:59:59;2.60;;;0.70;;
43676;SDS011;29275;48.800;18.102;2023-11-21T03:06:10;4.85;;;2.42;;
43676;SDS011;29275;48.800;18.102;2023-11-21T03:09:13;7.00;;;2.83;;
43676;SDS011;29275;48.800;18.102;2023-11-21T03:12:19;10.32;;;4.85;;
43676;SDS011;29275;48.800;18.102;2023-11-21T03:15:22;8.38;;;4.65;;
43676;SDS011;29275;48.800;18.102;2023-11-21T03:18:26;14.55;;;6.85;;
43676;SDS011;29275;48.800;18.102;2023-11-21T03:21:32;11.02;;;5.68;;
43676;SDS011;29275;48.800;18.102;2023-11-21T03:24:37;10.80;;;6.32;;
43676;SDS011;29275;48.800;18.102;2023-11-21T03:27:40;10.77;;;6.80;;
43676;SDS011;29275;48.800;18.102;2023-11-21T03:30:44;12.68;;;5.80;;
43676;SDS011;29275;48.800;18.102;2023-11-21T03:33:47;10.18;;;4.40;;
43676;SDS011;29275;48.800;18.102;2023-11-21T03:36:52;8.35;;;5.88;;
43676;SDS011;29275;48.800;18.102;2023-11-21T03:39:55;17.33;;;14.43;;
43676;SDS011;29275;48.800;18.102;2023-11-21T03:42:59;16.10;;;11.70;;
43676;SDS011;29275;48.800;18.102;2023-11-21T03:46:02;9.40;;;5.68;;
43676;SDS011;29275;48.800;18.102;2023-11-21T03:49:06;3.00;;;1.83;;
43676;SDS011;29275;48.800;18.102;2023-11-21T03:52:09;3.20;;;1.10;;
43676;SDS011;29275;48.800;18.102;2023-11-21T03:55:13;3.05;;;1.00;;
43676;SDS011;29275;48.800;18.102;2023-11-21T03:58:18;2.40;;;0.88;;
43676;SDS011;29275;48.800;18.102;2023-11-21T04:01:24;5.20;;;1.95;;
43676;SDS011;29275;48.800;18.102;2023-11-21T04:04:27;3.60;;;1.52;;
43676;SDS011;29275;48.800;18.102;2023-11-21T04:07:33;5.32;;;1.38;;
43676;SDS011;29275;48.800;18.102;2023-11-21T04:10:36;1.90;;;0.63;;
43676;SDS011;29275;48.800;18.102;2023-11-21T04:13:39;2.33;;;0.80;;
43676;SDS011;29275;48.800;18.102;2023-11-21T04:16:43;3.08;;;1.65;;
43676;SDS011;29275;48.800;18.102;2023-11-21T04:19:48;1.67;;;0.70;;
43676;SDS011;29275;48.800;18.102;2023-11-21T04:22:51;2.10;;;0.68;;
43676;SDS011;29275;48.800;18.102;2023-11-21T04:25:54;6.68;;;2.30;;
43676;SDS011;29275;48.800;18.102;2023-11-21T04:28:58;13.85;;;6.20;;
43676;SDS011;29275;48.800;18.102;2023-11-21T04:32:03;11.27;;;5.85;;
43676;SDS011;29275;48.800;18.102;2023-11-21T04:35:07;11.02;;;4.72;;
43676;SDS011;29275;48.800;18.102;2023-11-21T04:38:14;5.38;;;2.33;;
43676;SDS011;29275;48.800;18.102;2023-11-21T04:41:17;2.88;;;1.55;;
43676;SDS011;29275;48.800;18.102;2023-11-21T04:44:20;3.30;;;1.27;;
43676;SDS011;29275;48.800;18.102;2023-11-21T04:47:24;9.05;;;1.45;;
43676;SDS011;29275;48.800;18.102;2023-11-21T04:50:28;3.63;;;1.17;;
43676;SDS011;29275;48.800;18.102;2023-11-21T04:53:31;4.82;;;1.30;;
43676;SDS011;29275;48.800;18.102;2023-11-21T04:56:34;5.97;;;1.10;;
43676;SDS011;29275;48.800;18.102;2023-11-21T04:59:37;1.85;;;1.17;;
43676;SDS011;29275;48.800;18.102;2023-11-21T05:02:40;3.15;;;0.85;;
43676;SDS011;29275;48.800;18.102;2023-11-21T05:05:44;1.92;;;0.55;;
43676;SDS011;29275;48.800;18.102;2023-11-21T05:08:47;3.10;;;0.90;;
43676;SDS011;29275;48.800;18.102;2023-11-21T05:11:50;2.38;;;0.80;;
43676;SDS011;29275;48.800;18.102;2023-11-21T05:14:52;3.45;;;1.00;;
43676;SDS011;29275;48.800;18.102;2023-11-21T05:17:56;2.53;;;0.98;;
43676;SDS011;29275;48.800;18.102;2023-11-21T05:21:02;2.00;;;0.90;;
43676;SDS011;29275;48.800;18.102;2023-11-21T05:24:06;1.98;;;0.70;;
43676;SDS011;29275;48.800;18.102;2023-11-21T05:27:09;4.00;;;1.10;;
43676;SDS011;29275;48.800;18.102;2023-11-21T05:30:12;2.10;;;0.93;;
43676;SDS011;29275;48.800;18.102;2023-11-21T05:33:16;1.52;;;0.70;;
43676;SDS011;29275;48.800;18.102;2023-11-21T05:36:19;2.97;;;1.00;;
43676;SDS011;29275;48.800;18.102;2023-11-21T05:39:22;5.22;;;2.70;;
43676;SDS011;29275;48.800;18.102;2023-11-21T05:42:27;2.38;;;0.95;;
43676;SDS011;29275;48.800;18.102;2023-11-21T05:45:30;1.45;;;0.80;;
43676;SDS011;29275;48.800;18.102;2023-11-21T05:48:33;7.78;;;0.80;;
43676;SDS011;29275;48.800;18.102;2023-11-21T05:51:42;2.00;;;0.82;;
43676;SDS011;29275;48.800;18.102;2023-11-21T05:54:46;1.92;;;0.65;;
43676;SDS011;29275;48.800;18.102;2023-11-21T05:57:50;2.22;;;0.85;;
43676;SDS011;29275;48.800;18.102;2023-11-21T06:00:53;2.80;;;0.80;;
43676;SDS011;29275;48.800;18.102;2023-11-21T06:03:56;5.03;;;0.60;;
43676;SDS011;29275;48.800;18.102;2023-11-21T06:07:00;2.55;;;0.85;;
43676;SDS011;29275;48.800;18.102;2023-11-21T06:10:04;3.90;;;0.80;;
43676;SDS011;29275;48.800;18.102;2023-11-21T06:13:16;2.80;;;0.90;;
43676;SDS011;29275;48.800;18.102;2023-11-21T06:16:22;1.43;;;0.60;;
43676;SDS011;29275;48.800;18.102;2023-11-21T06:19:25;1.77;;;0.98;;
43676;SDS011;29275;48.800;18.102;2023-11-21T06:22:29;2.15;;;0.80;;
43676;SDS011;29275;48.800;18.102;2023-11-21T06:25:33;3.80;;;0.70;;
43676;SDS011;29275;48.800;18.102;2023-11-21T06:28:38;2.83;;;0.80;;
43676;SDS011;29275;48.800;18.102;2023-11-21T06:31:41;1.27;;;0.60;;
43676;SDS011;29275;48.800;18.102;2023-11-21T06:34:46;1.77;;;0.70;;
43676;SDS011;29275;48.800;18.102;2023-11-21T06:37:49;2.15;;;0.77;;
43676;SDS011;29275;48.800;18.102;2023-11-21T06:40:54;3.65;;;0.68;;
43676;SDS011;29275;48.800;18.102;2023-11-21T06:43:58;3.20;;;1.42;;
43676;SDS011;29275;48.800;18.102;2023-11-21T06:47:01;2.35;;;0.75;;
43676;SDS011;29275;48.800;18.102;2023-11-21T06:50:04;3.83;;;1.35;;
43676;SDS011;29275;48.800;18.102;2023-11-21T06:53:09;6.65;;;1.42;;
43676;SDS011;29275;48.800;18.102;2023-11-21T06:56:18;13.93;;;3.03;;
43676;SDS011;29275;48.800;18.102;2023-11-21T06:59:22;12.90;;;8.15;;
43676;SDS011;29275;48.800;18.102;2023-11-21T07:02:27;8.52;;;5.38;;
43676;SDS011;29275;48.800;18.102;2023-11-21T07:05:31;8.55;;;5.00;;
43676;SDS011;29275;48.800;18.102;2023-11-21T07:08:35;7.25;;;4.43;;
43676;SDS011;29275;48.800;18.102;2023-11-21T07:11:38;7.60;;;2.45;;
43676;SDS011;29275;48.800;18.102;2023-11-21T07:17:48;5.10;;;1.17;;
43676;SDS011;29275;48.800;18.102;2023-11-21T07:20:56;2.72;;;0.88;;
43676;SDS011;29275;48.800;18.102;2023-11-21T07:24:04;3.28;;;0.70;;
43676;SDS011;29275;48.800;18.102;2023-11-21T07:27:09;1.50;;;0.60;;
43676;SDS011;29275;48.800;18.102;2023-11-21T07:30:15;5.17;;;0.83;;
43676;SDS011;29275;48.800;18.102;2023-11-21T07:33:21;4.78;;;1.77;;
43676;SDS011;29275;48.800;18.102;2023-11-21T07:36:24;3.05;;;1.05;;
43676;SDS011;29275;48.800;18.102;2023-11-21T07:39:28;7.30;;;1.55;;
43676;SDS011;29275;48.800;18.102;2023-11-21T07:42:31;3.38;;;0.90;;
43676;SDS011;29275;48.800;18.102;2023-11-21T07:45:34;3.92;;;1.20;;
43676;SDS011;29275;48.800;18.102;2023-11-21T07:48:38;4.15;;;1.65;;
43676;SDS011;29275;48.800;18.102;2023-11-21T07:51:41;4.32;;;1.20;;
43676;SDS011;29275;48.800;18.102;2023-11-21T07:54:45;5.07;;;2.53;;
43676;SDS011;29275;48.800;18.102;2023-11-21T07:57:48;9.23;;;3.67;;
43676;SDS011;29275;48.800;18.102;2023-11-21T08:00:52;27.00;;;13.23;;
43676;SDS011;29275;48.800;18.102;2023-11-21T08:03:55;62.30;;;30.95;;
43676;SDS011;29275;48.800;18.102;2023-11-21T08:07:07;132.88;;;63.60;;
43676;SDS011;29275;48.800;18.102;2023-11-21T08:10:19;59.33;;;33.75;;
43676;SDS011;29275;48.800;18.102;2023-11-21T08:13:24;36.55;;;21.85;;
43676;SDS011;29275;48.800;18.102;2023-11-21T08:16:29;31.35;;;19.00;;
43676;SDS011;29275;48.800;18.102;2023-11-21T08:19:32;49.47;;;28.33;;
43676;SDS011;29275;48.800;18.102;2023-11-21T08:22:36;49.00;;;27.02;;
43676;SDS011;29275;48.800;18.102;2023-11-21T08:25:39;46.35;;;26.83;;
43676;SDS011;29275;48.800;18.102;2023-11-21T08:28:42;47.38;;;27.15;;
43676;SDS011;29275;48.800;18.102;2023-11-21T08:31:45;41.38;;;24.42;;
43676;SDS011;29275;48.800;18.102;2023-11-21T08:34:49;39.17;;;22.83;;
43676;SDS011;29275;48.800;18.102;2023-11-21T08:37:54;48.55;;;27.98;;
43676;SDS011;29275;48.800;18.102;2023-11-21T08:40:57;43.35;;;25.58;;
43676;SDS011;29275;48.800;18.102;2023-11-21T08:44:00;53.50;;;24.55;;
43676;SDS011;29275;48.800;18.102;2023-11-21T08:47:03;25.05;;;15.70;;
43676;SDS011;29275;48.800;18.102;2023-11-21T08:50:10;22.25;;;13.05;;
43676;SDS011;29275;48.800;18.102;2023-11-21T08:53:14;16.45;;;8.75;;
43676;SDS011;29275;48.800;18.102;2023-11-21T08:56:19;17.60;;;8.68;;
43676;SDS011;29275;48.800;18.102;2023-11-21T08:59:22;13.23;;;8.07;;
43676;SDS011;29275;48.800;18.102;2023-11-21T09:02:26;10.10;;;5.78;;
43676;SDS011;29275;48.800;18.102;2023-11-21T09:05:29;8.00;;;4.70;;
43676;SDS011;29275;48.800;18.102;2023-11-21T09:08:32;6.78;;;4.20;;
43676;SDS011;29275;48.800;18.102;2023-11-21T09:11:36;8.60;;;4.70;;
43676;SDS011;29275;48.800;18.102;2023-11-21T09:14:39;13.18;;;6.72;;
43676;SDS011;29275;48.800;18.102;2023-11-21T09:17:42;10.25;;;5.57;;
43676;SDS011;29275;48.800;18.102;2023-11-21T09:20:47;14.55;;;6.90;;
43676;SDS011;29275;48.800;18.102;2023-11-21T09:23:51;17.63;;;8.02;;
43676;SDS011;29275;48.800;18.102;2023-11-21T09:26:53;10.68;;;6.63;;
43676;SDS011;29275;48.800;18.102;2023-11-21T09:29:57;10.43;;;6.57;;
43676;SDS011;29275;48.800;18.102;2023-11-21T09:33:01;24.77;;;12.00;;
43676;SDS011;29275;48.800;18.102;2023-11-21T09:36:05;9.98;;;4.97;;
43676;SDS011;29275;48.800;18.102;2023-11-21T09:39:09;12.23;;;6.15;;
43676;SDS011;29275;48.800;18.102;2023-11-21T09:42:23;9.10;;;5.68;;
43676;SDS011;29275;48.800;18.102;2023-11-21T09:45:29;12.10;;;6.40;;
43676;SDS011;29275;48.800;18.102;2023-11-21T09:48:36;6.90;;;4.38;;
43676;SDS011;29275;48.800;18.102;2023-11-21T09:51:43;8.52;;;4.22;;
43676;SDS011;29275;48.800;18.102;2023-11-21T09:54:48;6.57;;;3.90;;
43676;SDS011;29275;48.800;18.102;2023-11-21T09:57:53;6.05;;;3.72;;
43676;SDS011;29275;48.800;18.102;2023-11-21T10:00:57;6.72;;;3.53;;
43676;SDS011;29275;48.800;18.102;2023-11-21T10:04:01;5.63;;;3.60;;
43676;SDS011;29275;48.800;18.102;2023-11-21T10:07:06;6.68;;;3.75;;
43676;SDS011;29275;48.800;18.102;2023-11-21T10:10:11;7.80;;;3.38;;
43676;SDS011;29275;48.800;18.102;2023-11-21T10:13:14;7.97;;;4.40;;
43676;SDS011;29275;48.800;18.102;2023-11-21T10:16:20;7.55;;;3.47;;
43676;SDS011;29275;48.800;18.102;2023-11-21T10:19:25;6.05;;;3.03;;
43676;SDS011;29275;48.800;18.102;2023-11-21T10:22:29;9.00;;;3.63;;
43676;SDS011;29275;48.800;18.102;2023-11-21T10:25:32;6.97;;;2.90;;
43676;SDS011;29275;48.800;18.102;2023-11-21T10:28:35;7.47;;;3.65;;
43676;SDS011;29275;48.800;18.102;2023-11-21T10:31:42;4.85;;;3.10;;
43676;SDS011;29275;48.800;18.102;2023-11-21T10:34:56;5.07;;;2.42;;
43676;SDS011;29275;48.800;18.102;2023-11-21T10:38:00;6.05;;;2.95;;
43676;SDS011;29275;48.800;18.102;2023-11-21T10:41:03;6.70;;;3.78;;
43676;SDS011;29275;48.800;18.102;2023-11-21T10:44:09;6.97;;;2.90;;
43676;SDS011;29275;48.800;18.102;2023-11-21T10:47:16;7.57;;;3.17;;
43676;SDS011;29275;48.800;18.102;2023-11-21T10:50:21;6.43;;;3.08;;
43676;SDS011;29275;48.800;18.102;2023-11-21T10:53:28;8.55;;;2.60;;
43676;SDS011;29275;48.800;18.102;2023-11-21T10:56:32;6.30;;;2.70;;
43676;SDS011;29275;48.800;18.102;2023-11-21T10:59:38;3.97;;;2.00;;
43676;SDS011;29275;48.800;18.102;2023-11-21T11:02:41;6.32;;;2.30;;
43676;SDS011;29275;48.800;18.102;2023-11-21T11:05:45;5.53;;;3.13;;
43676;SDS011;29275;48.800;18.102;2023-11-21T11:08:55;5.25;;;2.72;;
43676;SDS011;29275;48.800;18.102;2023-11-21T11:11:59;8.60;;;4.15;;
43676;SDS011;29275;48.800;18.102;2023-11-21T11:15:02;12.98;;;4.57;;
43676;SDS011;29275;48.800;18.102;2023-11-21T11:18:07;6.70;;;3.08;;
43676;SDS011;29275;48.800;18.102;2023-11-21T11:21:18;6.72;;;2.90;;
43676;SDS011;29275;48.800;18.102;2023-11-21T11:28:01;8.50;;;2.72;;
43676;SDS011;29275;48.800;18.102;2023-11-21T11:31:13;5.47;;;2.03;;
43676;SDS011;29275;48.800;18.102;2023-11-21T11:34:39;9.10;;;3.70;;
43676;SDS011;29275;48.800;18.102;2023-11-21T11:37:46;6.65;;;3.05;;
43676;SDS011;29275;48.800;18.102;2023-11-21T11:40:52;5.13;;;2.25;;
43676;SDS011;29275;48.800;18.102;2023-11-21T11:43:57;6.28;;;2.42;;
43676;SDS011;29275;48.800;18.102;2023-11-21T11:47:00;6.72;;;2.15;;
43676;SDS011;29275;48.800;18.102;2023-11-21T11:50:08;4.93;;;2.08;;
43676;SDS011;29275;48.800;18.102;2023-11-21T11:53:22;5.20;;;1.92;;
43676;SDS011;29275;48.800;18.102;2023-11-21T11:56:29;5.32;;;2.03;;
43676;SDS011;29275;48.800;18.102;2023-11-21T12:00:23;3.10;;;1.50;;
43676;SDS011;29275;48.800;18.102;2023-11-21T12:03:19;3.10;;;1.65;;
43676;SDS011;29275;48.800;18.102;2023-11-21T12:06:30;3.15;;;1.73;;
43676;SDS011;29275;48.800;18.102;2023-11-21T12:09:36;3.25;;;1.67;;
43676;SDS011;29275;48.800;18.102;2023-11-21T12:12:43;3.90;;;1.80;;
43676;SDS011;29275;48.800;18.102;2023-11-21T12:15:48;6.07;;;2.13;;
43676;SDS011;29275;48.800;18.102;2023-11-21T12:18:51;3.97;;;2.05;;
43676;SDS011;29275;48.800;18.102;2023-11-21T12:21:55;6.82;;;2.00;;
43676;SDS011;29275;48.800;18.102;2023-11-21T12:24:58;5.72;;;2.35;;
43676;SDS011;29275;48.800;18.102;2023-11-21T12:28:03;5.93;;;2.83;;
43676;SDS011;29275;48.800;18.102;2023-11-21T12:31:06;12.63;;;2.53;;
43676;SDS011;29275;48.800;18.102;2023-11-21T12:34:23;5.63;;;2.13;;
43676;SDS011;29275;48.800;18.102;2023-11-21T12:37:26;5.68;;;1.63;;
43676;SDS011;29275;48.800;18.102;2023-11-21T12:40:39;8.15;;;2.13;;
43676;SDS011;29275;48.800;18.102;2023-11-21T12:43:43;3.55;;;1.50;;
43676;SDS011;29275;48.800;18.102;2023-11-21T12:46:46;3.55;;;1.35;;
43676;SDS011;29275;48.800;18.102;2023-11-21T12:49:49;3.55;;;1.70;;
43676;SDS011;29275;48.800;18.102;2023-11-21T12:52:52;1.50;;;0.98;;
43676;SDS011;29275;48.800;18.102;2023-11-21T12:55:56;4.10;;;3.53;;
43676;SDS011;29275;48.800;18.102;2023-11-21T12:59:03;2.90;;;1.58;;
43676;SDS011;29275;48.800;18.102;2023-11-21T13:02:29;5.03;;;1.40;;
43676;SDS011;29275;48.800;18.102;2023-11-21T13:09:02;5.95;;;1.92;;
43676;SDS011;29275;48.800;18.102;2023-11-21T13:12:24;3.55;;;1.70;;
43676;SDS011;29275;48.800;18.102;2023-11-21T13:15:47;3.53;;;1.80;;
43676;SDS011;29275;48.800;18.102;2023-11-21T13:18:52;3.00;;;2.15;;
43676;SDS011;29275;48.800;18.102;2023-11-21T13:22:03;4.68;;;2.13;;
43676;SDS011;29275;48.800;18.102;2023-11-21T13:25:10;3.63;;;1.83;;
43676;SDS011;29275;48.800;18.102;2023-11-21T13:28:13;4.10;;;2.33;;
43676;SDS011;29275;48.800;18.102;2023-11-21T13:31:19;4.05;;;1.50;;
43676;SDS011;29275;48.800;18.102;2023-11-21T13:37:50;3.47;;;1.23;;
43676;SDS011;29275;48.800;18.102;2023-11-21T13:40:56;1.90;;;0.95;;
43676;SDS011;29275;48.800;18.102;2023-11-21T13:44:01;2.58;;;1.58;;
43676;SDS011;29275;48.800;18.102;2023-11-21T13:47:33;3.70;;;1.38;;
43676;SDS011;29275;48.800;18.102;2023-11-21T13:50:40;2.38;;;1.20;;
43676;SDS011;29275;48.800;18.102;2023-11-21T13:53:51;4.28;;;2.05;;
43676;SDS011;29275;48.800;18.102;2023-11-21T13:56:55;17.02;;;8.20;;
43676;SDS011;29275;48.800;18.102;2023-11-21T13:59:59;19.50;;;9.43;;
43676;SDS011;29275;48.800;18.102;2023-11-21T14:03:05;13.65;;;6.20;;
43676;SDS011;29275;48.800;18.102;2023-11-21T14:06:13;14.75;;;4.90;;
43676;SDS011;29275;48.800;18.102;2023-11-21T14:09:24;8.80;;;4.35;;
43676;SDS011;29275;48.800;18.102;2023-11-21T14:12:28;7.18;;;4.25;;
43676;SDS011;29275;48.800;18.102;2023-11-21T14:15:45;7.95;;;3.65;;
43676;SDS011;29275;48.800;18.102;2023-11-21T14:18:49;10.65;;;4.03;;
43676;SDS011;29275;48.800;18.102;2023-11-21T14:21:57;6.85;;;3.63;;
43676;SDS011;29275;48.800;18.102;2023-11-21T14:25:00;11.93;;;3.95;;
43676;SDS011;29275;48.800;18.102;2023-11-21T14:28:07;7.05;;;2.85;;
43676;SDS011;29275;48.800;18.102;2023-11-21T14:31:10;7.18;;;3.55;;
43676;SDS011;29275;48.800;18.102;2023-11-21T14:34:16;11.67;;;3.90;;
43676;SDS011;29275;48.800;18.102;2023-11-21T14:37:27;8.30;;;3.88;;
43676;SDS011;29275;48.800;18.102;2023-11-21T14:40:31;14.63;;;3.63;;
43676;SDS011;29275;48.800;18.102;2023-11-21T14:43:38;7.63;;;4.22;;
43676;SDS011;29275;48.800;18.102;2023-11-21T14:46:44;9.75;;;4.50;;
43676;SDS011;29275;48.800;18.102;2023-11-21T14:49:49;8.57;;;5.15;;
43676;SDS011;29275;48.800;18.102;2023-11-21T14:56:05;9.90;;;4.82;;
43676;SDS011;29275;48.800;18.102;2023-11-21T14:59:11;10.88;;;4.72;;
43676;SDS011;29275;48.800;18.102;2023-11-21T15:02:22;11.10;;;4.78;;
43676;SDS011;29275;48.800;18.102;2023-11-21T15:05:47;10.73;;;4.50;;
43676;SDS011;29275;48.800;18.102;2023-11-21T15:08:52;9.55;;;4.35;;
43676;SDS011;29275;48.800;18.102;2023-11-21T15:12:22;7.13;;;3.40;;
43676;SDS011;29275;48.800;18.102;2023-11-21T15:15:31;7.28;;;3.78;;
43676;SDS011;29275;48.800;18.102;2023-11-21T15:18:37;8.07;;;5.00;;
43676;SDS011;29275;48.800;18.102;2023-11-21T15:21:41;7.38;;;4.50;;
43676;SDS011;29275;48.800;18.102;2023-11-21T15:24:44;14.07;;;6.65;;
43676;SDS011;29275;48.800;18.102;2023-11-21T15:28:21;9.25;;;5.15;;
43676;SDS011;29275;48.800;18.102;2023-11-21T15:31:46;4.18;;;2.60;;
43676;SDS011;29275;48.800;18.102;2023-11-21T15:38:01;8.73;;;3.53;;
43676;SDS011;29275;48.800;18.102;2023-11-21T15:41:04;7.15;;;3.30;;
43676;SDS011;29275;48.800;18.102;2023-11-21T15:44:10;7.45;;;4.60;;
43676;SDS011;29275;48.800;18.102;2023-11-21T15:47:15;7.65;;;4.18;;
43676;SDS011;29275;48.800;18.102;2023-11-21T15:50:18;6.68;;;3.65;;
43676;SDS011;29275;48.800;18.102;2023-11-21T15:53:27;8.02;;;4.18;;
43676;SDS011;29275;48.800;18.102;2023-11-21T15:56:31;6.10;;;3.22;;
43676;SDS011;29275;48.800;18.102;2023-11-21T15:59:36;9.25;;;4.53;;
43676;SDS011;29275;48.800;18.102;2023-11-21T16:02:43;13.13;;;5.30;;
43676;SDS011;29275;48.800;18.102;2023-11-21T16:05:47;8.15;;;5.43;;
43676;SDS011;29275;48.800;18.102;2023-11-21T16:08:54;21.00;;;13.70;;
43676;SDS011;29275;48.800;18.102;2023-11-21T16:11:59;17.88;;;7.38;;
43676;SDS011;29275;48.800;18.102;2023-11-21T16:15:07;11.88;;;8.60;;
43676;SDS011;29275;48.800;18.102;2023-11-21T16:18:14;9.35;;;5.93;;
43676;SDS011;29275;48.800;18.102;2023-11-21T16:21:22;9.75;;;5.25;;
43676;SDS011;29275;48.800;18.102;2023-11-21T16:24:25;14.00;;;5.72;;
43676;SDS011;29275;48.800;18.102;2023-11-21T16:27:39;17.05;;;7.25;;
43676;SDS011;29275;48.800;18.102;2023-11-21T16:30:44;8.82;;;6.00;;
43676;SDS011;29275;48.800;18.102;2023-11-21T16:33:48;7.70;;;4.88;;
43676;SDS011;29275;48.800;18.102;2023-11-21T16:36:52;9.27;;;6.15;;
43676;SDS011;29275;48.800;18.102;2023-11-21T16:39:58;8.38;;;4.70;;
43676;SDS011;29275;48.800;18.102;2023-11-21T16:43:02;8.32;;;4.50;;
43676;SDS011;29275;48.800;18.102;2023-11-21T16:46:05;7.20;;;4.70;;
43676;SDS011;29275;48.800;18.102;2023-11-21T16:49:09;9.43;;;5.18;;
43676;SDS011;29275;48.800;18.102;2023-11-21T16:52:16;12.00;;;6.00;;
43676;SDS011;29275;48.800;18.102;2023-11-21T16:55:25;6.18;;;4.03;;
43676;SDS011;29275;48.800;18.102;2023-11-21T16:58:29;10.75;;;3.95;;
43676;SDS011;29275;48.800;18.102;2023-11-21T17:01:34;6.85;;;3.72;;
43676;SDS011;29275;48.800;18.102;2023-11-21T17:04:38;4.82;;;3.00;;
43676;SDS011;29275;48.800;18.102;2023-11-21T17:07:50;5.07;;;3.00;;
43676;SDS011;29275;48.800;18.102;2023-11-21T17:11:14;3.63;;;1.88;;
43676;SDS011;29275;48.800;18.102;2023-11-21T17:14:17;4.32;;;2.00;;
43676;SDS011;29275;48.800;18.102;2023-11-21T17:17:30;4.45;;;2.63;;
43676;SDS011;29275;48.800;18.102;2023-11-21T17:21:03;9.02;;;5.53;;
43676;SDS011;29275;48.800;18.102;2023-11-21T17:24:23;10.57;;;7.00;;
43676;SDS011;29275;48.800;18.102;2023-11-21T17:27:51;6.28;;;3.47;;
43676;SDS011;29275;48.800;18.102;2023-11-21T17:31:05;3.95;;;2.13;;
43676;SDS011;29275;48.800;18.102;2023-11-21T17:34:27;4.03;;;2.20;;
43676;SDS011;29275;48.800;18.102;2023-11-21T17:40:49;3.95;;;1.92;;
43676;SDS011;29275;48.800;18.102;2023-11-21T17:43:53;4.78;;;2.35;;
43676;SDS011;29275;48.800;18.102;2023-11-21T17:47:00;6.18;;;2.00;;
43676;SDS011;29275;48.800;18.102;2023-11-21T17:50:04;4.70;;;2.60;;
43676;SDS011;29275;48.800;18.102;2023-11-21T17:53:09;3.70;;;2.17;;
43676;SDS011;29275;48.800;18.102;2023-11-21T17:56:13;4.38;;;2.20;;
43676;SDS011;29275;48.800;18.102;2023-11-21T17:59:18;5.30;;;2.47;;
43676;SDS011;29275;48.800;18.102;2023-11-21T18:02:22;3.83;;;2.05;;
43676;SDS011;29275;48.800;18.102;2023-11-21T18:05:26;4.65;;;2.58;;
43676;SDS011;29275;48.800;18.102;2023-11-21T18:08:29;5.15;;;2.80;;
43676;SDS011;29275;48.800;18.102;2023-11-21T18:11:34;6.38;;;2.83;;
43676;SDS011;29275;48.800;18.102;2023-11-21T18:14:38;8.10;;;2.70;;
43676;SDS011;29275;48.800;18.102;2023-11-21T18:17:42;5.60;;;3.00;;
43676;SDS011;29275;48.800;18.102;2023-11-21T18:20:45;4.53;;;2.90;;
43676;SDS011;29275;48.800;18.102;2023-11-21T18:23:49;7.15;;;3.50;;
43676;SDS011;29275;48.800;18.102;2023-11-21T18:26:56;4.47;;;2.90;;
43676;SDS011;29275;48.800;18.102;2023-11-21T18:29:59;4.73;;;2.93;;
43676;SDS011;29275;48.800;18.102;2023-11-21T18:33:02;3.92;;;2.92;;
43676;SDS011;29275;48.800;18.102;2023-11-21T18:36:07;6.40;;;3.38;;
43676;SDS011;29275;48.800;18.102;2023-11-21T18:39:11;6.35;;;3.35;;
43676;SDS011;29275;48.800;18.102;2023-11-21T18:42:19;10.45;;;3.55;;
43676;SDS011;29275;48.800;18.102;2023-11-21T18:45:26;8.55;;;3.40;;